createdAt,value
2023-02-14T00:00:22.360Z,-0.33
2023-02-14T00:02:51.077Z,-0.59
2023-02-14T00:05:21.002Z,-0.32
2023-02-14T00:07:49.100Z,-0.15
2023-02-14T00:10:17.661Z,-0.14
2023-02-14T00:12:46.099Z,0.11
2023-02-14T00:15:25.825Z,0.04
2023-02-14T00:18:03.335Z,0.15
2023-02-14T00:20:40.949Z,0.62
2023-02-14T00:23:10.757Z,0.57
2023-02-14T00:25:41.383Z,0.28
2023-02-14T00:28:11.684Z,0.28
2023-02-14T00:30:44.022Z,0.14
2023-02-14T00:33:13.857Z,0.12
2023-02-14T00:35:44.142Z,0.11
2023-02-14T00:38:12.541Z,0.07
2023-02-14T00:40:43.275Z,0.22
2023-02-14T00:43:12.472Z,0.13
2023-02-14T00:45:41.915Z,0.44
2023-02-14T00:48:10.242Z,0.99
2023-02-14T00:50:40.874Z,0.96
2023-02-14T00:53:09.898Z,1.34
2023-02-14T00:55:38.017Z,1.48
2023-02-14T00:58:05.995Z,1.58
2023-02-14T01:00:33.982Z,1.59
2023-02-14T01:03:02.053Z,1.72
2023-02-14T01:05:30.228Z,1.73
2023-02-14T01:07:59.560Z,1.84
2023-02-14T01:10:27.451Z,1.62
2023-02-14T01:12:55.385Z,1.51
2023-02-14T01:15:23.188Z,1.20
2023-02-14T01:17:51.199Z,1.17
2023-02-14T01:20:19.497Z,0.98
2023-02-14T01:22:47.513Z,1.10
2023-02-14T01:25:17.085Z,1.05
2023-02-14T01:27:45.266Z,1.10
2023-02-14T01:30:14.756Z,0.76
2023-02-14T01:32:43.415Z,0.78
2023-02-14T01:35:11.836Z,0.54
2023-02-14T01:37:40.188Z,0.41
2023-02-14T01:40:12.663Z,0.49
2023-02-14T01:42:45.083Z,0.32
2023-02-14T01:45:19.827Z,0.57
2023-02-14T01:47:51.600Z,0.47
2023-02-14T01:50:25.369Z,0.28
2023-02-14T01:52:58.991Z,0.32
2023-02-14T01:55:30.228Z,0.27
2023-02-14T01:58:04.361Z,0.22
2023-02-14T02:00:51.733Z,0.25
2023-02-14T02:03:22.193Z,0.45
2023-02-14T02:05:53.096Z,0.29
2023-02-14T02:08:21.555Z,0.39
2023-02-14T02:10:49.658Z,0.30
2023-02-14T02:13:21.186Z,0.47
2023-02-14T02:15:58.825Z,0.19
2023-02-14T02:18:38.980Z,0.37
2023-02-14T02:21:34.253Z,0.07
2023-02-14T02:24:22.114Z,0.30
2023-02-14T02:27:20.261Z,0.15
2023-02-14T02:30:23.523Z,-0.02
2023-02-14T02:33:46.020Z,-0.07
2023-02-14T02:36:46.064Z,-0.20
2023-02-14T02:39:34.542Z,-0.19
2023-02-14T02:42:11.846Z,-0.25
2023-02-14T02:44:51.210Z,-0.12
2023-02-14T02:47:27.426Z,-0.14
2023-02-14T02:50:17.474Z,-0.24
2023-02-14T02:53:04.243Z,-0.37
2023-02-14T02:55:59.200Z,-0.52
2023-02-14T02:58:32.186Z,-0.52
2023-02-14T03:01:04.072Z,-0.55
2023-02-14T03:03:52.503Z,-0.88
2023-02-14T03:06:20.585Z,-0.93
2023-02-14T03:08:57.903Z,-1.02
2023-02-14T03:11:28.428Z,-0.90
2023-02-14T03:14:20.444Z,-0.90
2023-02-14T03:17:00.489Z,-0.93
2023-02-14T03:20:05.915Z,-0.79
2023-02-14T03:22:49.178Z,-0.61
2023-02-14T03:25:32.559Z,-0.85
2023-02-14T03:28:08.341Z,-0.78
2023-02-14T03:30:43.750Z,-0.98
2023-02-14T03:33:20.026Z,-0.91
2023-02-14T03:35:56.070Z,-0.71
2023-02-14T03:38:32.979Z,-0.61
2023-02-14T03:41:05.353Z,-0.54
2023-02-14T03:43:37.799Z,-0.40
2023-02-14T03:46:11.646Z,-0.46
2023-02-14T03:48:43.231Z,-0.57
2023-02-14T03:51:22.216Z,-0.77
2023-02-14T03:54:02.126Z,-0.52
2023-02-14T03:56:37.738Z,-0.47
2023-02-14T03:59:11.651Z,-0.33
2023-02-14T04:01:47.889Z,-0.45
2023-02-14T04:04:21.821Z,-0.55
2023-02-14T04:06:52.263Z,-0.46
2023-02-14T04:09:20.298Z,-0.64
2023-02-14T04:11:50.827Z,-0.39
2023-02-14T04:14:19.285Z,-0.21
2023-02-14T04:17:07.902Z,0.11
2023-02-14T04:19:36.860Z,0.03
2023-02-14T04:22:04.797Z,0.14
2023-02-14T04:24:32.810Z,-0.11
2023-02-14T04:27:11.239Z,-0.01
2023-02-14T04:29:43.832Z,-0.35
2023-02-14T04:32:14.003Z,-0.40
2023-02-14T04:34:42.395Z,-0.45
2023-02-14T04:37:10.957Z,-0.34
2023-02-14T04:39:39.445Z,-0.40
2023-02-14T04:42:09.364Z,-0.41
2023-02-14T04:44:38.294Z,-0.57
2023-02-14T04:47:07.362Z,-0.63
2023-02-14T04:49:35.876Z,-0.61
2023-02-14T04:52:05.486Z,-0.61
2023-02-14T04:54:33.930Z,-0.72
2023-02-14T04:57:02.204Z,-0.60
2023-02-14T04:59:31.545Z,-0.56
2023-02-14T05:01:59.627Z,-0.42
2023-02-14T05:04:27.821Z,-0.51
2023-02-14T05:06:55.836Z,-0.72
2023-02-14T05:09:23.798Z,-0.92
2023-02-14T05:11:51.883Z,-0.99
2023-02-14T05:14:20.253Z,-1.30
2023-02-14T05:16:49.572Z,-1.44
2023-02-14T05:19:17.419Z,-1.36
2023-02-14T05:21:47.073Z,-1.42
2023-02-14T05:24:15.202Z,-1.52
2023-02-14T05:26:43.124Z,-1.48
2023-02-14T05:29:11.305Z,-1.32
2023-02-14T05:31:39.612Z,-1.48
2023-02-14T05:34:09.208Z,-1.51
2023-02-14T05:36:37.262Z,-1.27
2023-02-14T05:39:06.222Z,-1.06
2023-02-14T05:41:34.188Z,-0.70
2023-02-14T05:44:02.310Z,-0.88
2023-02-14T05:46:30.256Z,-1.01
2023-02-14T05:48:58.546Z,-1.16
2023-02-14T05:51:28.866Z,-1.14
2023-02-14T05:53:57.835Z,-1.32
2023-02-14T05:56:25.938Z,-1.18
2023-02-14T05:58:53.952Z,-1.18
2023-02-14T06:01:27.009Z,-1.18
2023-02-14T06:03:54.981Z,-1.18
2023-02-14T06:06:22.874Z,-1.41
2023-02-14T06:08:52.075Z,-1.56
2023-02-14T06:11:20.097Z,-1.75
2023-02-14T06:13:48.240Z,-1.59
2023-02-14T06:16:16.120Z,-1.63
2023-02-14T06:18:45.068Z,-1.65
2023-02-14T06:21:12.931Z,-1.56
2023-02-14T06:23:40.769Z,-1.49
2023-02-14T06:26:09.960Z,-1.60
2023-02-14T06:28:38.018Z,-1.63
2023-02-14T06:31:06.460Z,-1.50
2023-02-14T06:33:34.563Z,-1.30
2023-02-14T06:36:02.513Z,-1.51
2023-02-14T06:38:30.599Z,-1.44
2023-02-14T06:41:04.626Z,-1.61
2023-02-14T06:43:34.783Z,-1.95
2023-02-14T06:46:03.086Z,-1.76
2023-02-14T06:48:31.474Z,-1.59
2023-02-14T06:50:59.753Z,-1.56
2023-02-14T06:53:28.129Z,-1.63
2023-02-14T06:55:56.395Z,-1.89
2023-02-14T06:58:24.620Z,-1.84
2023-02-14T07:00:56.008Z,-1.93
2023-02-14T07:03:27.230Z,-1.99
2023-02-14T07:05:55.339Z,-2.02
2023-02-14T07:08:26.220Z,-1.86
2023-02-14T07:10:58.870Z,-1.92
2023-02-14T07:13:27.101Z,-1.85
2023-02-14T07:15:58.469Z,-1.75
2023-02-14T07:18:32.109Z,-1.74
2023-02-14T07:21:00.715Z,-1.50
2023-02-14T07:23:28.943Z,-1.65
2023-02-14T07:25:57.313Z,-1.46
2023-02-14T07:28:25.313Z,-1.31
2023-02-14T07:30:53.535Z,-1.20
2023-02-14T07:33:26.970Z,-1.27
2023-02-14T07:35:54.830Z,-1.28
2023-02-14T07:38:23.155Z,-1.24
2023-02-14T07:40:54.301Z,-1.24
2023-02-14T07:43:22.310Z,-1.07
2023-02-14T07:45:51.754Z,-1.09
2023-02-14T07:48:20.810Z,-0.91
2023-02-14T07:50:50.347Z,-0.90
2023-02-14T07:53:18.295Z,-0.81
2023-02-14T07:55:50.810Z,-0.63
2023-02-14T07:58:18.824Z,-0.50
2023-02-14T08:00:47.620Z,-0.38
2023-02-14T08:03:16.323Z,-0.27
2023-02-14T08:05:44.628Z,-0.19
2023-02-14T08:08:14.224Z,-0.02
2023-02-14T08:10:45.038Z,0.16
2023-02-14T08:13:12.102Z,0.28
2023-02-14T08:15:59.754Z,0.44
2023-02-14T08:18:27.873Z,0.65
2023-02-14T08:20:55.977Z,0.75
2023-02-14T08:23:25.376Z,0.99
2023-02-14T08:25:54.005Z,1.32
2023-02-14T08:28:22.068Z,1.36
2023-02-14T08:30:50.243Z,1.35
2023-02-14T08:33:18.275Z,1.51
2023-02-14T08:35:46.272Z,2.09
2023-02-14T08:38:14.519Z,2.29
2023-02-14T08:40:55.684Z,2.66
2023-02-14T08:43:23.713Z,3.09
2023-02-14T08:45:57.668Z,3.01
2023-02-14T08:48:28.565Z,3.20
2023-02-14T08:51:06.887Z,3.48
2023-02-14T08:53:35.512Z,3.71
2023-02-14T08:56:05.893Z,3.84
2023-02-14T08:58:35.835Z,4.64
2023-02-14T09:01:10.128Z,4.93
2023-02-14T09:03:38.763Z,5.77
2023-02-14T09:06:09.389Z,5.97
2023-02-14T09:08:40.049Z,6.22
2023-02-14T09:11:11.110Z,6.50
2023-02-14T09:13:39.105Z,6.03
2023-02-14T09:16:08.103Z,6.00
2023-02-14T09:18:36.056Z,5.94
2023-02-14T09:21:08.129Z,6.67
2023-02-14T09:23:36.213Z,6.77
2023-02-14T09:26:06.922Z,7.50
2023-02-14T09:28:37.182Z,7.87
2023-02-14T09:31:10.725Z,8.36
2023-02-14T09:33:40.903Z,7.96
2023-02-14T09:36:12.668Z,8.14
2023-02-14T09:38:41.136Z,7.92
2023-02-14T09:41:11.195Z,8.24
2023-02-14T09:43:49.310Z,8.38
2023-02-14T09:46:20.247Z,8.56
2023-02-14T09:48:49.834Z,8.93
2023-02-14T09:51:21.532Z,9.36
2023-02-14T09:53:54.593Z,8.96
2023-02-14T09:56:42.789Z,9.27
2023-02-14T09:59:34.499Z,9.36
2023-02-14T10:02:22.854Z,9.72
2023-02-14T10:05:11.515Z,10.24
2023-02-14T10:07:52.871Z,10.16
2023-02-14T10:10:41.997Z,10.28
2023-02-14T10:13:18.063Z,10.42
2023-02-14T10:16:12.827Z,10.59
2023-02-14T10:18:46.446Z,10.85
2023-02-14T10:21:21.351Z,10.61
2023-02-14T10:23:54.406Z,11.58
2023-02-14T10:26:29.088Z,11.73
2023-02-14T10:28:57.892Z,11.46
2023-02-14T10:31:44.440Z,11.28
2023-02-14T10:34:18.081Z,11.67
2023-02-14T10:37:00.494Z,11.81
2023-02-14T10:39:44.560Z,11.33
2023-02-14T10:42:26.552Z,11.71
2023-02-14T10:45:06.775Z,11.17
2023-02-14T10:47:45.168Z,11.13
2023-02-14T10:50:20.859Z,11.27
2023-02-14T10:52:59.184Z,11.02
2023-02-14T10:55:39.594Z,11.46
2023-02-14T10:58:13.213Z,10.86
2023-02-14T11:00:48.585Z,11.32
2023-02-14T11:03:18.982Z,11.68
2023-02-14T11:05:49.619Z,12.02
2023-02-14T11:08:25.649Z,12.29
2023-02-14T11:10:55.173Z,12.46
2023-02-14T11:13:32.249Z,12.06
2023-02-14T11:16:03.256Z,12.21
2023-02-14T11:18:36.208Z,12.09
2023-02-14T11:21:10.813Z,12.10
2023-02-14T11:23:42.365Z,12.16
2023-02-14T11:26:17.816Z,11.62
2023-02-14T11:28:53.663Z,11.90
2023-02-14T11:31:30.785Z,12.42
2023-02-14T11:34:04.737Z,12.33
2023-02-14T11:36:41.251Z,12.16
2023-02-14T11:39:29.453Z,12.86
2023-02-14T11:42:00.191Z,14.11
2023-02-14T11:44:33.157Z,14.27
2023-02-14T11:47:21.679Z,14.94
2023-02-14T11:50:15.683Z,14.75
2023-02-14T11:52:52.045Z,14.55
2023-02-14T11:55:28.020Z,14.57
2023-02-14T11:57:57.719Z,15.71
2023-02-14T12:00:27.023Z,15.53
2023-02-14T12:02:57.488Z,16.54
2023-02-14T12:05:30.293Z,15.39
2023-02-14T12:08:00.280Z,15.57
2023-02-14T12:10:30.825Z,15.52
2023-02-14T12:13:04.253Z,16.36
2023-02-14T12:15:36.816Z,16.13
2023-02-14T12:18:41.512Z,17.03
2023-02-14T12:21:39.870Z,16.74
2023-02-14T12:24:17.867Z,16.52
2023-02-14T12:26:51.850Z,16.65
2023-02-14T12:29:26.264Z,16.12
2023-02-14T12:31:57.907Z,16.80
2023-02-14T12:34:26.229Z,17.32
2023-02-14T12:37:18.363Z,17.86
2023-02-14T12:40:04.293Z,17.53
2023-02-14T12:42:57.652Z,17.48
2023-02-14T12:45:37.979Z,16.85
2023-02-14T12:48:16.730Z,17.42
2023-02-14T12:50:55.631Z,17.38
2023-02-14T12:53:43.508Z,17.53
2023-02-14T12:56:18.248Z,17.03
2023-02-14T12:58:57.891Z,17.38
2023-02-14T13:01:56.441Z,17.86
2023-02-14T13:04:46.116Z,17.21
2023-02-14T13:07:27.517Z,18.50
2023-02-14T13:10:06.261Z,18.49
2023-02-14T13:12:42.210Z,17.97
2023-02-14T13:15:23.598Z,16.99
2023-02-14T13:17:56.386Z,16.90
2023-02-14T13:20:47.277Z,16.54
2023-02-14T13:23:20.309Z,16.76
2023-02-14T13:25:55.557Z,16.68
2023-02-14T13:28:24.256Z,17.03
2023-02-14T13:30:52.604Z,16.96
2023-02-14T13:33:34.775Z,16.63
2023-02-14T13:36:07.965Z,17.59
2023-02-14T13:38:42.283Z,16.90
2023-02-14T13:41:13.670Z,17.45
2023-02-14T13:44:03.156Z,17.09
2023-02-14T13:46:55.559Z,17.02
2023-02-14T13:49:31.787Z,16.67
2023-02-14T13:52:03.831Z,16.98
2023-02-14T13:54:37.226Z,16.31
2023-02-14T13:57:28.301Z,17.01
2023-02-14T14:00:32.415Z,17.45
2023-02-14T14:03:01.540Z,16.97
2023-02-14T14:06:01.729Z,17.34
2023-02-14T14:08:48.783Z,16.75
2023-02-14T14:11:59.684Z,16.83
2023-02-14T14:14:36.312Z,17.12
2023-02-14T14:17:27.703Z,16.96
2023-02-14T14:19:59.581Z,17.03
2023-02-14T14:22:29.413Z,17.64
2023-02-14T14:25:00.648Z,17.75
2023-02-14T14:27:33.330Z,16.54
2023-02-14T14:30:05.967Z,16.66
2023-02-14T14:32:35.833Z,16.59
2023-02-14T14:35:06.388Z,17.10
2023-02-14T14:37:36.943Z,16.14
2023-02-14T14:40:10.869Z,15.81
2023-02-14T14:42:41.997Z,16.58
2023-02-14T14:45:23.177Z,17.10
2023-02-14T14:47:54.335Z,17.95
2023-02-14T14:50:25.507Z,17.43
2023-02-14T14:52:56.648Z,16.52
2023-02-14T14:55:27.692Z,16.79
2023-02-14T14:57:57.558Z,16.86
2023-02-14T15:00:29.703Z,17.63
2023-02-14T15:03:04.057Z,17.50
2023-02-14T15:05:35.379Z,16.21
2023-02-14T15:08:23.638Z,15.90
2023-02-14T15:10:55.666Z,16.04
2023-02-14T15:13:51.343Z,16.00
2023-02-14T15:16:23.307Z,16.13
2023-02-14T15:18:52.964Z,14.90
2023-02-14T15:21:22.391Z,15.40
2023-02-14T15:23:51.098Z,14.63
2023-02-14T15:26:24.373Z,13.95
2023-02-14T15:28:57.731Z,13.01
2023-02-14T15:31:32.125Z,12.73
2023-02-14T15:34:02.937Z,12.20
2023-02-14T15:36:32.242Z,11.97
2023-02-14T15:39:03.618Z,11.78
2023-02-14T15:41:37.397Z,11.40
2023-02-14T15:44:05.973Z,11.25
2023-02-14T15:46:38.613Z,11.23
2023-02-14T15:49:11.930Z,10.92
2023-02-14T15:51:41.223Z,10.94
2023-02-14T15:54:22.062Z,10.67
2023-02-14T15:56:53.835Z,10.50
2023-02-14T15:59:26.394Z,10.31
2023-02-14T16:01:59.451Z,10.18
2023-02-14T16:04:30.023Z,9.94
2023-02-14T16:07:17.505Z,9.74
2023-02-14T16:09:46.566Z,9.48
2023-02-14T16:12:30.623Z,9.26
2023-02-14T16:15:18.744Z,9.17
2023-02-14T16:17:48.656Z,9.34
2023-02-14T16:20:29.363Z,8.97
2023-02-14T16:23:17.266Z,8.83
2023-02-14T16:25:47.746Z,8.98
2023-02-14T16:28:16.286Z,8.63
2023-02-14T16:30:46.720Z,8.31
2023-02-14T16:33:21.147Z,8.14
2023-02-14T16:35:50.132Z,7.76
2023-02-14T16:38:20.457Z,7.55
2023-02-14T16:40:50.580Z,7.17
2023-02-14T16:43:20.761Z,6.95
2023-02-14T16:45:49.680Z,6.70
2023-02-14T16:48:20.358Z,6.62
2023-02-14T16:50:49.411Z,6.58
2023-02-14T16:53:26.394Z,6.36
2023-02-14T16:55:56.001Z,6.30
2023-02-14T16:58:29.846Z,6.13
2023-02-14T17:00:58.731Z,6.02
2023-02-14T17:03:29.688Z,5.82
2023-02-14T17:06:06.322Z,5.64
2023-02-14T17:08:43.662Z,5.48
2023-02-14T17:11:12.263Z,5.38
2023-02-14T17:13:44.504Z,5.03
2023-02-14T17:16:15.798Z,4.95
2023-02-14T17:18:47.859Z,4.72
2023-02-14T17:21:18.182Z,4.99
2023-02-14T17:23:46.164Z,5.12
2023-02-14T17:26:14.415Z,5.18
2023-02-14T17:28:42.627Z,5.00
2023-02-14T17:31:11.938Z,5.01
2023-02-14T17:33:40.996Z,4.76
2023-02-14T17:36:12.710Z,4.70
2023-02-14T17:38:43.567Z,4.63
2023-02-14T17:41:13.974Z,4.25
2023-02-14T17:43:42.046Z,4.14
2023-02-14T17:46:10.416Z,4.01
2023-02-14T17:48:38.510Z,3.91
2023-02-14T17:51:07.176Z,3.80
2023-02-14T17:53:37.037Z,3.73
2023-02-14T17:56:07.514Z,3.67
2023-02-14T17:58:37.807Z,3.40
2023-02-14T18:01:06.856Z,3.47
2023-02-14T18:03:37.073Z,3.39
2023-02-14T18:06:06.136Z,3.33
2023-02-14T18:08:50.425Z,3.16
2023-02-14T18:11:22.657Z,3.18
2023-02-14T18:13:58.165Z,3.14
2023-02-14T18:16:26.458Z,3.10
2023-02-14T18:19:01.095Z,3.18
2023-02-14T18:21:35.758Z,3.58
2023-02-14T18:24:08.715Z,3.73
2023-02-14T18:26:43.145Z,3.39
2023-02-14T18:29:20.590Z,3.36
2023-02-14T18:31:51.144Z,3.19
2023-02-14T18:34:25.307Z,3.07
2023-02-14T18:36:53.214Z,2.69
2023-02-14T18:39:23.482Z,3.06
2023-02-14T18:41:53.234Z,2.72
2023-02-14T18:44:22.010Z,2.67
2023-02-14T18:46:49.972Z,2.77
2023-02-14T18:49:18.284Z,2.78
2023-02-14T18:51:46.354Z,2.58
2023-02-14T18:54:14.477Z,2.60
2023-02-14T18:56:44.300Z,2.51
2023-02-14T18:59:13.364Z,2.54
2023-02-14T19:01:44.375Z,2.48
2023-02-14T19:04:13.967Z,2.51
2023-02-14T19:06:43.336Z,2.48
2023-02-14T19:09:14.144Z,2.53
2023-02-14T19:11:46.946Z,2.58
2023-02-14T19:14:15.039Z,2.42
2023-02-14T19:16:50.269Z,2.41
2023-02-14T19:19:18.869Z,2.21
2023-02-14T19:21:47.586Z,2.12
2023-02-14T19:24:17.746Z,1.94
2023-02-14T19:26:48.356Z,1.84
2023-02-14T19:29:18.667Z,1.92
2023-02-14T19:31:51.775Z,2.55
2023-02-14T19:34:21.420Z,2.61
2023-02-14T19:36:51.426Z,2.21
2023-02-14T19:39:20.114Z,2.14
2023-02-14T19:41:50.166Z,1.88
2023-02-14T19:44:19.481Z,1.87
2023-02-14T19:46:49.762Z,1.66
2023-02-14T19:49:20.600Z,1.59
2023-02-14T19:51:51.170Z,2.15
2023-02-14T19:54:21.965Z,1.96
2023-02-14T19:56:51.462Z,1.79
2023-02-14T19:59:25.279Z,1.75
2023-02-14T20:01:56.933Z,1.82
2023-02-14T20:04:27.538Z,1.52
2023-02-14T20:06:57.229Z,2.00
2023-02-14T20:09:25.675Z,2.00
2023-02-14T20:11:56.604Z,1.78
2023-02-14T20:14:26.210Z,1.63
2023-02-14T20:16:55.893Z,1.59
2023-02-14T20:19:27.886Z,1.38
2023-02-14T20:22:02.021Z,1.11
2023-02-14T20:24:33.643Z,0.98
2023-02-14T20:27:05.899Z,0.98
2023-02-14T20:29:38.869Z,1.01
2023-02-14T20:32:08.481Z,0.94
2023-02-14T20:34:38.140Z,1.15
2023-02-14T20:37:06.293Z,1.26
2023-02-14T20:39:35.933Z,1.08
2023-02-14T20:42:06.286Z,0.93
2023-02-14T20:44:34.532Z,0.76
2023-02-14T20:47:02.653Z,0.64
2023-02-14T20:49:32.675Z,0.97
2023-02-14T20:52:01.019Z,0.86
2023-02-14T20:54:30.321Z,0.98
2023-02-14T20:56:59.179Z,0.87
2023-02-14T20:59:29.209Z,0.72
2023-02-14T21:01:59.425Z,0.90
2023-02-14T21:04:28.175Z,1.04
2023-02-14T21:06:57.943Z,0.90
2023-02-14T21:09:28.381Z,0.74
2023-02-14T21:11:58.336Z,0.94
2023-02-14T21:14:26.491Z,0.63
2023-02-14T21:16:55.900Z,0.94
2023-02-14T21:19:26.523Z,1.01
2023-02-14T21:21:55.098Z,0.88
2023-02-14T21:24:24.405Z,0.76
2023-02-14T21:26:53.207Z,0.54
2023-02-14T21:29:21.474Z,0.73
2023-02-14T21:31:49.683Z,0.58
2023-02-14T21:34:19.134Z,0.37
2023-02-14T21:36:48.118Z,0.33
2023-02-14T21:39:16.509Z,0.39
2023-02-14T21:41:44.705Z,0.41
2023-02-14T21:44:32.638Z,0.26
2023-02-14T21:47:00.691Z,0.44
2023-02-14T21:49:48.482Z,0.75
2023-02-14T21:52:16.703Z,0.50
2023-02-14T21:54:44.674Z,0.35
2023-02-14T21:57:12.784Z,0.25
2023-02-14T21:59:41.133Z,0.20
2023-02-14T22:02:09.277Z,0.21
2023-02-14T22:04:39.670Z,0.47
2023-02-14T22:07:07.963Z,0.34
2023-02-14T22:09:36.204Z,0.31
2023-02-14T22:12:05.563Z,-0.07
2023-02-14T22:14:33.577Z,0.14
2023-02-14T22:17:01.587Z,0.30
2023-02-14T22:19:30.023Z,-0.22
2023-02-14T22:21:59.301Z,-0.15
2023-02-14T22:24:30.042Z,-0.10
2023-02-14T22:26:57.953Z,-0.20
2023-02-14T22:29:26.075Z,-0.28
2023-02-14T22:31:54.196Z,0.18
2023-02-14T22:34:22.861Z,0.04
2023-02-14T22:36:53.700Z,-0.21
2023-02-14T22:39:26.901Z,0.00
2023-02-14T22:41:54.843Z,-0.33
2023-02-14T22:44:22.938Z,-0.30
2023-02-14T22:46:52.079Z,-0.30
2023-02-14T22:49:25.860Z,-0.38
2023-02-14T22:51:59.726Z,-0.21
2023-02-14T22:54:29.148Z,-0.34
2023-02-14T22:56:57.105Z,-0.45
2023-02-14T22:59:28.141Z,-0.36
2023-02-14T23:01:56.826Z,-0.50
2023-02-14T23:04:26.029Z,-0.60
2023-02-14T23:06:55.080Z,-0.67
2023-02-14T23:09:23.680Z,-0.81
2023-02-14T23:11:53.205Z,-0.26
2023-02-14T23:14:39.007Z,0.22
2023-02-14T23:17:25.830Z,0.19
2023-02-14T23:20:11.805Z,-0.12
2023-02-14T23:22:41.178Z,-0.07
2023-02-14T23:25:11.122Z,-0.37
2023-02-14T23:27:43.050Z,-0.27
2023-02-14T23:30:13.918Z,-0.35
2023-02-14T23:32:43.094Z,-0.49
2023-02-14T23:35:11.336Z,-0.61
2023-02-14T23:37:41.767Z,-0.11
2023-02-14T23:40:13.970Z,0.01
2023-02-14T23:42:43.348Z,-0.31
2023-02-14T23:45:29.151Z,-0.37
2023-02-14T23:48:03.022Z,-0.35
2023-02-14T23:50:31.158Z,-0.59
2023-02-14T23:52:59.128Z,-0.71
2023-02-14T23:55:28.074Z,-0.66
2023-02-14T23:57:57.547Z,-0.78
